Alafaya, FL

6:27 AM EDT on August 27, 2014 (GMT -0400)
UCF Area / WUCF-FM | Change Station
CLOSE
Current Station
Personal Weather Station
Location: Orlando, FL
Elevation: 85 ft
Nearby Weather Stations

Elev 85 ft 28.60 °N, 81.20 °W | Updated 1 second ago

Partly Cloudy
Partly Cloudy
75.7 °F
Feels Like 75 °F
N
0.0
Wind Variable Wind from NNE
Gusts 0.0 mph

Today
High -- | Low -- °F
--% Chance of Precip.
Yesterday
High -- | Low -- °F
Precip. -- in
7:00 AM 7:51 PM
Waxing Crescent, 3% visible
Pressure 29.95 in
Visibility 10.0 miles
Clouds Mostly Cloudy 6000 ft
Overcast 10000 ft
Heat Index 75 °F
Dew Point 74 °F
Humidity 95%
Rainfall 0.00 in
Snow Depth Not available.
UV 0 out of 12
Pollen 8.30 out of 12
Air Quality Not available.
Flu Activity Not available.
METAR KORL 270953Z AUTO 02006KT 10SM BKN060 OVC100 26/22 A2994 RMK AO2 SLP141 T02560217

More Conditions Fewer Conditions

Pressure 29.95 in
Visibility 10.0 miles
Clouds Mostly Cloudy 6000 ft
Overcast 10000 ft
Heat Index 75 °F
Dew Point 74 °F
Humidity 95%
Rainfall 0.00 in
Snow Depth Not available.
UV 0 out of 12
Pollen 8.30 out of 12
Air Quality Not available.
Flu Activity Not available.
METAR KORL 270953Z AUTO 02006KT 10SM BKN060 OVC100 26/22 A2994 RMK AO2 SLP141 T02560217

More Conditions Fewer Conditions

Nowcast | as of 6:17 am EDT on August 27, 2014

Isolated showers move to the southwest at 15 to 20 mph over the Atlantic waters from Cape Canaveral north. Some of the showers will come ashore between Flagler Beach and Cape Canaveral and make past Interstate 95 before dissipating. Infrared satellite images shows more low clouds in the Atlantic moving toward the northeast and east central Florida coast at 15 to 20 mph. Additional details...including graphics are available online at: http://www.Srh.NOAA.Gov/mlb/blog.Php

×

10-Day Weather Forecast

Almanac

Astronomy

Aug. 27, 2014 Rise Set
Actual Time 7:00 AM EDT 7:51 PM EDT
Civil Twilight 6:36 AM EDT 8:15 PM EDT
Nautical Twilight 6:07 AM EDT 8:44 PM EDT
Astronomical Twilight 5:38 AM EDT 9:13 PM EDT
Moon 8:42 AM EDT 8:58 PM EDT
Length of Visible Light 13h 39m
Length of Day
12h 51m
Tomorrow will be 1m 37s shorter.
Waxing Crescent, 3% of the Moon is Illuminated
Today
Waxing Crescent
Sep 2
First Quarter
Sep 8
Full
Sep 15
Last Quarter
Sep 24
New

Today's Extremes

State Highs State Lows

Community

WunderPhotos

Upload Photos

1,747,661 photos uploaded!

Nearby

Air Quality

  Air Quality AQ Index Pollutant
Yesterday Good
PM2.5
Wednesday Good
OZONE

Snow Depth

Station Depth Elevation
No new snow has been reported.

Earthquake Activity

City Distance Mag. Time & Date
No recent earthquake activity has been reported nearby.
Minimum magnitude displayed is 2.5.

Coastal Water Temperatures

Place Temperature
Trident Pier, FL 82.9 °F
Fort Myers, FL 87.1 °F
Lake Worth, FL 84.9 °F

Nearby Weather Stations